Time;durP1;ratioP1;P1;durP2;ratioP2;P2;SDS_P1;SDS_P2;PMS_P1;PMS_P2;Temp;Humidity;BMP_temperature;BMP_pressure;BME280_temperature;BME280_humidity;BME280_pressure;Samples;Min_cycle;Max_cycle;Signal;HPM_P1;HPM_P2
2021/05/14 00:01:52;;;;;;;1.90;1.08;;;;;;;25.26;41.17;94258.78;5048829;28;20033;-70
2021/05/14 00:04:19;;;;;;;1.67;0.90;;;;;;;25.27;40.64;94260.22;5048627;28;20043;-70
2021/05/14 00:06:45;;;;;;;2.25;1.48;;;;;;;25.26;41.27;94266.22;5063779;28;20419;-70
2021/05/14 00:09:11;;;;;;;1.80;1.08;;;;;;;25.26;41.19;94260.78;5047023;28;20554;-69
2021/05/14 00:11:36;;;;;;;1.88;1.10;;;;;;;25.24;41.22;94258.56;5048470;28;20548;-70
2021/05/14 00:14:02;;;;;;;1.45;1.00;;;;;;;25.23;41.29;94257.13;5047333;28;20029;-70
2021/05/14 00:16:27;;;;;;;3.15;1.30;;;;;;;24.93;40.86;94229.63;5048259;28;20431;-69
2021/05/14 00:18:53;;;;;;;1.67;1.05;;;;;;;25.03;41.05;94222.41;5047177;28;20017;-69
2021/05/14 00:21:18;;;;;;;1.83;1.00;;;;;;;25.19;41.06;94245.81;5063342;28;20416;-69
2021/05/14 00:23:44;;;;;;;2.17;1.10;;;;;;;25.21;40.55;94254.19;5062804;28;20032;-69
2021/05/14 00:26:09;;;;;;;1.33;0.88;;;;;;;25.14;40.87;94254.91;5048394;28;20466;-70
2021/05/14 00:28:35;;;;;;;2.22;1.20;;;;;;;25.16;40.54;94233.22;5046712;28;20477;-70
2021/05/14 00:31:00;;;;;;;1.48;0.90;;;;;;;25.18;40.73;94243.63;5047907;28;20098;-70
2021/05/14 00:33:26;;;;;;;1.42;0.85;;;;;;;25.15;40.86;94261.81;5048453;28;20503;-68
2021/05/14 00:35:51;;;;;;;1.75;0.93;;;;;;;25.16;40.74;94263.28;5048113;28;20123;-70
2021/05/14 00:38:17;;;;;;;2.35;1.10;;;;;;;25.14;40.79;94265.81;5062912;28;20033;-70
2021/05/14 00:40:42;;;;;;;1.90;1.00;;;;;;;25.16;41.57;94257.81;5048319;28;20021;-69
2021/05/14 00:43:08;;;;;;;1.23;0.73;;;;;;;25.14;40.60;94265.81;5046982;28;20025;-69
2021/05/14 00:45:33;;;;;;;2.00;1.17;;;;;;;25.13;41.07;94269.81;5047000;28;20511;-70
2021/05/14 00:47:59;;;;;;;2.20;0.90;;;;;;;25.14;41.18;94274.03;5048104;28;20024;-69
2021/05/14 00:50:24;;;;;;;2.05;1.00;;;;;;;24.97;41.51;94262.78;5047929;28;20025;-70
2021/05/14 00:52:49;;;;;;;1.45;0.73;;;;;;;25.11;41.53;94272.38;5053644;28;20488;-70
2021/05/14 00:55:15;;;;;;;1.33;0.90;;;;;;;25.10;41.73;94276.38;5049155;28;20933;-70
2021/05/14 00:57:41;;;;;;;1.70;0.90;;;;;;;25.09;41.32;94285.81;5067587;28;20498;-69
2021/05/14 01:00:07;;;;;;;2.17;0.93;;;;;;;25.08;40.91;94289.84;5067442;28;20031;-70
2021/05/14 01:02:32;;;;;;;1.52;0.80;;;;;;;25.07;41.16;94282.91;5067848;28;20109;-69
2021/05/14 01:04:58;;;;;;;1.33;0.77;;;;;;;25.05;41.24;94285.44;5067687;28;20415;-69
2021/05/14 01:07:23;;;;;;;1.17;0.77;;;;;;;24.77;40.97;94253.91;5067746;28;20029;-69
2021/05/14 01:09:49;;;;;;;2.03;0.82;;;;;;;25.06;40.97;94292.34;5046810;28;20032;-70
2021/05/14 01:12:14;;;;;;;1.10;0.70;;;;;;;25.06;41.10;94284.16;5047652;28;20052;-70
2021/05/14 01:14:39;;;;;;;1.40;0.82;;;;;;;25.06;40.95;94286.16;5047771;28;20032;-70
2021/05/14 01:17:05;;;;;;;1.65;0.80;;;;;;;25.05;40.68;94279.97;5047420;28;20028;-69
2021/05/14 01:19:30;;;;;;;1.30;0.77;;;;;;;24.97;41.53;94268.22;5047400;28;20020;-69
2021/05/14 01:21:56;;;;;;;1.30;0.80;;;;;;;25.02;41.20;94272.88;5047515;28;20270;-71
2021/05/14 01:24:22;;;;;;;1.30;0.80;;;;;;;25.02;40.80;94275.59;5046678;28;20188;-71
2021/05/14 01:26:47;;;;;;;0.90;0.70;;;;;;;24.98;41.11;94266.97;5047726;28;20025;-72
2021/05/14 01:29:13;;;;;;;1.73;0.80;;;;;;;24.84;40.92;94249.22;5047555;28;20021;-71
2021/05/14 01:31:39;;;;;;;2.13;0.68;;;;;;;24.98;41.15;94275.16;5029657;28;20079;-69
2021/05/14 01:34:07;;;;;;;1.15;0.70;;;;;;;24.99;41.58;94293.06;5046128;28;20029;-70
2021/05/14 01:36:33;;;;;;;1.55;0.70;;;;;;;24.95;40.92;94281.69;5047393;28;20024;-72
2021/05/14 01:39:12;;;;;;;1.88;1.20;;;;;;;24.94;41.04;94285.69;5060957;28;20040;-71
2021/05/14 01:41:38;;;;;;;1.97;0.90;;;;;;;24.96;41.30;94288.66;5067607;28;20170;-69
2021/05/14 01:44:04;;;;;;;1.10;0.60;;;;;;;24.90;41.16;94279.88;5049545;28;20111;-71
2021/05/14 01:46:29;;;;;;;1.58;0.70;;;;;;;24.94;41.80;94296.63;5066463;28;20043;-69
2021/05/14 01:48:55;;;;;;;1.10;0.77;;;;;;;24.95;40.90;94281.69;5065892;28;20085;-71
2021/05/14 01:51:21;;;;;;;1.70;0.90;;;;;;;24.86;40.89;94279.47;5067353;28;20063;-71
2021/05/14 01:53:46;;;;;;;1.70;0.68;;;;;;;24.94;41.29;94288.44;5049069;28;20454;-70
2021/05/14 01:56:12;;;;;;;1.58;0.77;;;;;;;24.93;41.04;94297.91;5067556;28;20024;-70
2021/05/14 01:58:37;;;;;;;2.17;0.80;;;;;;;24.94;41.02;94291.16;5066906;28;20021;-70
2021/05/14 02:01:03;;;;;;;1.67;0.90;;;;;;;24.92;41.80;94299.16;5067209;28;20031;-70
2021/05/14 02:03:29;;;;;;;1.48;0.70;;;;;;;24.78;41.27;94271.75;5082678;28;20678;-69
2021/05/14 02:05:54;;;;;;;2.03;0.70;;;;;;;24.90;41.82;94298.97;5066283;28;20029;-70
2021/05/14 02:08:20;;;;;;;2.00;0.88;;;;;;;24.88;41.39;94298.75;5066961;28;20029;-70
2021/05/14 02:10:45;;;;;;;1.20;0.70;;;;;;;24.89;41.85;94300.25;5048044;28;20035;-69
2021/05/14 02:13:10;;;;;;;1.48;0.77;;;;;;;24.90;41.73;94307.19;5069224;28;20040;-68
2021/05/14 02:15:36;;;;;;;2.55;0.90;;;;;;;24.95;41.46;94297.38;5069444;28;20043;-67
2021/05/14 02:18:01;;;;;;;1.13;0.73;;;;;;;24.92;41.90;94299.16;5073610;28;20036;-68
2021/05/14 02:20:27;;;;;;;1.58;0.70;;;;;;;24.82;42.03;94298.19;5088111;28;20029;-69
2021/05/14 02:22:52;;;;;;;1.75;0.60;;;;;;;24.82;41.82;94289.25;5074445;28;20028;-67
2021/05/14 02:25:18;;;;;;;2.08;1.00;;;;;;;24.96;42.21;94307.75;5071423;28;20017;-70
2021/05/14 02:27:43;;;;;;;1.88;0.75;;;;;;;24.98;41.84;94307.94;5070489;28;20021;-71
2021/05/14 02:30:09;;;;;;;1.05;0.68;;;;;;;25.02;42.06;94302.91;5050900;28;20423;-70
2021/05/14 02:32:35;;;;;;;0.85;0.68;;;;;;;25.09;41.50;94291.28;5067286;28;20498;-71
2021/05/14 02:35:00;;;;;;;1.75;0.80;;;;;;;25.17;41.87;94303.00;5067971;28;20025;-69
2021/05/14 02:37:26;;;;;;;1.42;0.82;;;;;;;25.00;41.12;94272.66;4952520;28;20072;-70
2021/05/14 02:39:51;;;;;;;1.10;0.50;;;;;;;25.33;41.55;94294.34;5053835;28;20107;-70
2021/05/14 02:42:17;;;;;;;0.90;0.60;;;;;;;25.25;41.83;94287.38;5068847;28;20024;-69
2021/05/14 02:44:42;;;;;;;1.50;0.70;;;;;;;25.47;41.04;94297.69;5067175;28;20047;-70
2021/05/14 02:47:08;;;;;;;1.50;0.60;;;;;;;25.61;41.11;94307.25;5051020;28;20024;-70
2021/05/14 02:49:34;;;;;;;1.15;0.63;;;;;;;25.72;41.14;94301.47;5067173;28;20055;-71
2021/05/14 02:52:00;;;;;;;1.15;0.60;;;;;;;25.81;40.49;94305.16;5066738;28;20027;-71
2021/05/14 02:54:25;;;;;;;1.88;0.88;;;;;;;25.91;40.15;94311.56;5050802;28;20133;-71
2021/05/14 02:56:51;;;;;;;1.50;0.70;;;;;;;25.99;39.98;94320.53;5062812;28;20840;-71
2021/05/14 02:59:16;;;;;;;1.85;0.65;;;;;;;26.10;39.93;94325.66;5067430;28;20020;-71
2021/05/14 03:01:42;;;;;;;1.33;0.90;;;;;;;26.15;39.65;94324.75;5068197;28;20028;-70
2021/05/14 03:04:07;;;;;;;2.03;0.80;;;;;;;26.05;39.58;94285.53;5069171;28;20490;-70
2021/05/14 03:06:33;;;;;;;1.38;0.55;;;;;;;26.18;39.58;94304.50;5068187;28;20016;-69
2021/05/14 03:08:58;;;;;;;1.52;0.77;;;;;;;26.41;39.19;94316.25;5045102;28;20047;-69
2021/05/14 03:11:24;;;;;;;1.20;0.63;;;;;;;26.49;39.37;94334.16;5068523;28;20016;-70
2021/05/14 03:13:50;;;;;;;1.83;0.60;;;;;;;26.56;38.28;94321.75;5069075;28;20038;-69
2021/05/14 03:16:15;;;;;;;0.98;0.55;;;;;;;26.65;38.90;94318.47;5067552;28;20025;-69
2021/05/14 03:18:41;;;;;;;1.05;0.57;;;;;;;26.69;38.61;94313.38;5049774;28;20028;-70
2021/05/14 03:21:06;;;;;;;1.25;0.75;;;;;;;26.72;38.65;94328.72;5068617;28;20021;-70
2021/05/14 03:23:32;;;;;;;1.33;0.70;;;;;;;26.73;38.76;94330.19;5049995;28;20029;-70
2021/05/14 03:25:57;;;;;;;0.80;0.52;;;;;;;26.84;38.58;94336.72;5067719;28;20028;-69
2021/05/14 03:28:23;;;;;;;1.73;0.70;;;;;;;26.86;38.40;94322.47;5068000;28;20028;-70
2021/05/14 03:30:50;;;;;;;1.00;0.60;;;;;;;26.77;38.33;94309.38;5067302;28;20468;-71
2021/05/14 03:33:19;;;;;;;1.05;0.60;;;;;;;26.82;38.43;94311.91;5066785;28;20109;-71
2021/05/14 03:35:45;;;;;;;0.97;0.67;;;;;;;27.07;38.07;94320.31;5050704;28;20415;-70
2021/05/14 03:38:10;;;;;;;1.15;0.55;;;;;;;27.09;38.23;94332.19;5049093;28;20123;-70
2021/05/14 03:40:36;;;;;;;1.13;0.65;;;;;;;27.13;37.92;94318.84;5049850;28;20569;-71
2021/05/14 03:43:02;;;;;;;0.85;0.60;;;;;;;27.19;37.91;94344.06;5067857;28;20025;-71
2021/05/14 03:45:28;;;;;;;1.20;0.52;;;;;;;27.24;38.02;94351.38;5065781;28;20027;-71
2021/05/14 03:47:54;;;;;;;0.82;0.57;;;;;;;27.29;37.63;94342.22;5067003;28;20086;-70
2021/05/14 03:50:20;;;;;;;1.13;0.60;;;;;;;27.33;37.70;94342.59;5065886;28;20028;-70
2021/05/14 03:52:45;;;;;;;1.10;0.50;;;;;;;27.36;37.70;94342.19;5065736;28;20674;-71
2021/05/14 03:55:11;;;;;;;1.25;0.60;;;;;;;27.35;37.50;94323.56;5046036;28;20032;-71
2021/05/14 03:57:36;;;;;;;1.40;0.80;;;;;;;27.45;37.08;94327.19;5066775;28;20036;-72
2021/05/14 04:00:04;;;;;;;1.95;0.57;;;;;;;27.56;37.01;94332.31;5064443;28;20028;-70
2021/05/14 04:02:29;;;;;;;2.28;0.52;;;;;;;27.60;37.44;94327.19;5049800;28;20748;-72
2021/05/14 04:04:55;;;;;;;1.90;0.70;;;;;;;27.67;37.06;94337.38;5067017;28;20036;-71
2021/05/14 04:07:22;;;;;;;1.73;0.57;;;;;;;27.68;37.14;94333.38;5066014;28;20036;-72
2021/05/14 04:10:14;;;;;;;1.00;0.40;;;;;;;27.76;36.97;94335.53;5067604;28;20534;-70
2021/05/14 04:15:06;;;;;;;1.35;0.50;;;;;;;27.65;36.56;94329.00;5082113;28;20029;-71
2021/05/14 04:17:32;;;;;;;1.20;0.57;;;;;;;27.88;36.51;94344.81;5049041;28;20024;-72
2021/05/14 04:19:58;;;;;;;1.83;0.60;;;;;;;27.92;36.55;94342.44;5066302;28;20032;-70
2021/05/14 04:22:24;;;;;;;1.20;0.60;;;;;;;27.99;36.61;94341.66;5067487;28;20033;-70
2021/05/14 04:24:50;;;;;;;1.00;0.50;;;;;;;27.94;36.34;94344.63;5067354;28;20111;-71
2021/05/14 04:27:15;;;;;;;1.25;0.70;;;;;;;28.00;36.71;94339.66;5067721;28;20028;-71
2021/05/14 04:29:42;;;;;;;1.45;0.55;;;;;;;27.96;36.54;94340.03;5066085;28;20396;-71
2021/05/14 04:32:07;;;;;;;1.33;0.60;;;;;;;28.04;36.60;94348.22;5065502;28;20028;-71
2021/05/14 04:34:33;;;;;;;0.85;0.52;;;;;;;28.09;36.28;94356.28;5065537;28;20106;-71
2021/05/14 04:36:58;;;;;;;2.03;0.50;;;;;;;28.02;36.69;94359.03;5066628;28;20021;-70
2021/05/14 04:39:23;;;;;;;2.92;0.60;;;;;;;28.04;36.66;94362.72;5068896;28;20020;-70
2021/05/14 04:41:49;;;;;;;1.92;0.73;;;;;;;28.03;36.29;94347.50;5062283;28;20040;-70
2021/05/14 04:44:16;;;;;;;1.58;0.68;;;;;;;28.16;36.35;94363.78;5055983;28;20044;-70
2021/05/14 04:46:41;;;;;;;2.80;0.80;;;;;;;28.25;35.98;94360.41;5066270;28;20086;-71
2021/05/14 04:49:07;;;;;;;2.08;0.70;;;;;;;28.12;35.80;94343.47;5067151;28;20017;-71
2021/05/14 04:51:32;;;;;;;1.55;0.60;;;;;;;28.23;36.13;94371.94;5066873;28;20028;-69
2021/05/14 04:53:58;;;;;;;1.52;0.80;;;;;;;28.18;36.75;94369.44;5065641;28;20148;-70
2021/05/14 04:56:24;;;;;;;3.70;0.70;;;;;;;28.31;35.73;94366.44;5048342;28;20031;-70
2021/05/14 04:58:49;;;;;;;7.70;0.77;;;;;;;28.16;35.99;94361.03;5067403;28;20024;-70
2021/05/14 05:01:15;;;;;;;1.55;0.88;;;;;;;28.27;35.69;94377.09;5065483;28;20028;-71
2021/05/14 05:03:45;;;;;;;1.88;0.73;;;;;;;28.36;35.55;94368.25;5066946;28;20078;-70
2021/05/14 05:06:10;;;;;;;2.70;1.00;;;;;;;28.25;36.21;94374.91;5049081;28;20414;-69
2021/05/14 05:08:36;;;;;;;1.77;0.70;;;;;;;28.31;36.09;94382.91;5066527;28;20032;-70
2021/05/14 05:11:01;;;;;;;2.17;0.80;;;;;;;28.26;35.36;94383.84;5066511;28;20025;-69
2021/05/14 05:13:26;;;;;;;2.22;0.77;;;;;;;28.27;35.84;94382.56;5066139;28;20021;-71
2021/05/14 05:15:52;;;;;;;2.55;0.90;;;;;;;28.28;35.81;94378.53;5046759;28;20078;-69
2021/05/14 05:18:17;;;;;;;2.20;0.60;;;;;;;28.34;34.99;94381.78;5064722;28;20361;-68
2021/05/14 05:20:43;;;;;;;2.67;0.90;;;;;;;28.44;35.65;94374.44;5066091;28;20475;-70
2021/05/14 05:23:08;;;;;;;3.00;1.00;;;;;;;28.40;35.98;94374.06;5066050;28;20085;-70
2021/05/14 05:25:34;;;;;;;2.30;0.82;;;;;;;28.45;35.93;94386.88;5066040;28;20037;-70
2021/05/14 05:27:59;;;;;;;2.33;1.00;;;;;;;28.44;35.76;94388.88;5066308;28;20024;-70
2021/05/14 05:30:25;;;;;;;2.83;1.10;;;;;;;28.40;36.72;94390.56;5064063;28;20082;-69
2021/05/14 05:32:51;;;;;;;1.73;1.20;;;;;;;28.49;36.66;94392.69;5066165;28;20894;-68
2021/05/14 05:35:16;;;;;;;3.10;1.13;;;;;;;28.45;36.50;94375.91;5047812;28;20028;-69
2021/05/14 05:37:42;;;;;;;1.70;1.08;;;;;;;28.65;36.16;94399.59;5066092;28;20020;-69
2021/05/14 05:40:08;;;;;;;2.35;0.90;;;;;;;28.58;36.59;94394.84;5047796;28;20020;-69
2021/05/14 05:42:33;;;;;;;1.48;0.90;;;;;;;28.66;35.70;94398.31;5066310;28;20036;-69
2021/05/14 05:44:59;;;;;;;3.45;1.00;;;;;;;28.44;36.76;94385.41;5064554;28;20027;-69
2021/05/14 05:47:25;;;;;;;2.85;0.80;;;;;;;28.43;37.26;94411.41;5066786;28;20028;-73
2021/05/14 05:49:50;;;;;;;2.05;0.88;;;;;;;28.62;36.98;94417.19;5067255;28;20024;-71
2021/05/14 05:52:15;;;;;;;2.08;0.85;;;;;;;28.47;37.35;94400.78;4997098;28;20382;-70
2021/05/14 05:54:41;;;;;;;2.53;0.93;;;;;;;28.47;35.94;94407.00;5029815;28;20025;-71
2021/05/14 05:57:07;;;;;;;3.47;1.20;;;;;;;28.60;34.78;94420.50;5063542;28;20039;-70
2021/05/14 05:59:35;;;;;;;2.38;0.98;;;;;;;28.53;35.07;94437.75;5046990;28;20040;-72
2021/05/14 06:02:00;;;;;;;2.40;1.05;;;;;;;28.49;35.36;94426.41;5048723;28;20067;-71
2021/05/14 06:04:26;;;;;;;3.30;1.20;;;;;;;28.31;35.29;94421.34;5049725;28;20408;-72
2021/05/14 06:06:51;;;;;;;2.30;1.30;;;;;;;28.23;35.41;94428.91;5049913;28;20495;-72
2021/05/14 06:09:16;;;;;;;2.15;1.20;;;;;;;28.12;35.55;94425.84;5048781;28;20083;-71
2021/05/14 06:11:42;;;;;;;2.70;1.10;;;;;;;28.13;35.70;94433.53;5029999;28;20419;-71
2021/05/14 06:14:07;;;;;;;3.30;1.67;;;;;;;28.12;35.72;94425.84;5045213;28;20500;-72
2021/05/14 06:16:33;;;;;;;2.58;1.02;;;;;;;27.95;35.30;94418.19;5048661;28;20025;-71
2021/05/14 06:19:33;;;;;;;4.13;1.33;;;;;;;27.90;35.12;94432.09;5048124;28;20033;-71
2021/05/14 06:21:50;;;;;;;4.32;1.40;;;;;;;27.73;35.36;94421.00;5048392;28;20044;-71
2021/05/14 06:24:16;;;;;;;5.38;1.40;;;;;;;27.63;35.51;94411.13;5049773;28;20040;-72
2021/05/14 06:26:42;;;;;;;3.47;1.33;;;;;;;27.63;35.33;94441.31;5045558;28;20033;-72
2021/05/14 06:29:07;;;;;;;2.60;1.27;;;;;;;27.49;35.58;94426.31;5045155;28;20029;-72
2021/05/14 06:31:33;;;;;;;3.85;1.20;;;;;;;27.29;35.78;94424.47;5030298;28;20103;-71
2021/05/14 06:33:58;;;;;;;3.65;1.40;;;;;;;27.29;35.82;94424.47;5027959;28;20042;-71
2021/05/14 06:36:24;;;;;;;2.55;1.52;;;;;;;26.99;35.43;94390.84;5048892;28;20040;-72
2021/05/14 06:38:49;;;;;;;4.10;1.15;;;;;;;27.21;35.89;94412.06;5048222;28;20029;-72
2021/05/14 06:41:15;;;;;;;2.97;1.35;;;;;;;27.11;35.93;94409.13;5047392;28;20036;-72
2021/05/14 06:43:40;;;;;;;2.80;1.40;;;;;;;27.07;36.09;94411.50;5048539;28;20036;-73
2021/05/14 06:46:05;;;;;;;4.63;1.50;;;;;;;26.95;36.20;94410.41;5029961;28;20036;-73
2021/05/14 06:48:31;;;;;;;3.35;1.58;;;;;;;26.91;36.00;94406.56;5031075;28;20380;-71
2021/05/14 06:50:57;;;;;;;6.20;1.30;;;;;;;26.84;36.28;94424.41;5062831;28;20527;-72
2021/05/14 06:53:22;;;;;;;6.05;1.92;;;;;;;26.86;36.02;94410.91;5046782;28;20427;-72
2021/05/14 06:55:47;;;;;;;5.15;1.80;;;;;;;26.71;36.25;94420.38;5047196;28;20032;-72
2021/05/14 06:58:14;;;;;;;2.83;1.50;;;;;;;26.69;36.16;94433.91;5047652;28;20025;-73
2021/05/14 07:00:39;;;;;;;2.92;1.38;;;;;;;26.57;36.15;94432.78;5048069;28;20025;-72
2021/05/14 07:03:05;;;;;;;4.22;1.60;;;;;;;26.53;36.37;94435.13;5048522;28;20408;-73
2021/05/14 07:05:30;;;;;;;5.10;1.42;;;;;;;26.26;35.84;94409.28;5046770;28;20377;-73
2021/05/14 07:07:56;;;;;;;3.75;1.25;;;;;;;26.55;35.61;94429.84;5047989;28;20090;-73
2021/05/14 07:10:23;;;;;;;2.00;1.10;;;;;;;26.38;34.23;94448.78;5048311;28;20492;-73
2021/05/14 07:12:48;;;;;;;5.43;1.00;;;;;;;26.15;33.54;94404.13;5031709;28;20059;-72
2021/05/14 07:15:14;;;;;;;2.50;1.35;;;;;;;26.11;34.51;94403.03;5049075;28;20021;-73
2021/05/14 07:17:39;;;;;;;2.35;0.73;;;;;;;26.09;35.23;94406.31;5048798;28;20543;-71
2021/05/14 07:20:05;;;;;;;1.58;0.90;;;;;;;26.10;33.77;94407.78;5031027;28;20044;-73
2021/05/14 07:22:31;;;;;;;1.25;0.70;;;;;;;26.10;34.85;94413.25;5031319;28;20029;-72
2021/05/14 07:24:56;;;;;;;7.10;1.40;;;;;;;26.09;34.84;94411.78;5049446;28;20036;-72
2021/05/14 07:27:22;;;;;;;1.45;0.70;;;;;;;26.06;35.23;94407.38;5049390;28;20021;-70
2021/05/14 07:29:47;;;;;;;1.75;0.60;;;;;;;26.06;34.82;94401.91;5048006;28;20549;-71
2021/05/14 07:32:13;;;;;;;1.13;0.50;;;;;;;25.99;34.75;94401.88;5047183;28;20036;-70
2021/05/14 07:34:38;;;;;;;2.05;0.60;;;;;;;26.04;34.01;94404.47;5047500;28;20040;-71
2021/05/14 07:37:04;;;;;;;1.30;0.60;;;;;;;26.00;35.05;94414.28;5047257;28;20045;-71
2021/05/14 07:39:30;;;;;;;2.40;0.60;;;;;;;25.99;35.37;94413.56;5029384;28;20077;-70
2021/05/14 07:41:55;;;;;;;3.63;0.70;;;;;;;25.93;34.56;94426.69;5046812;28;20060;-75
2021/05/14 07:44:22;;;;;;;1.33;0.80;;;;;;;26.09;34.69;94422.72;5048247;28;20032;-73
2021/05/14 07:46:48;;;;;;;2.88;0.60;;;;;;;26.00;34.83;94398.59;5030200;28;20028;-72
2021/05/14 07:49:14;;;;;;;1.33;0.60;;;;;;;26.21;35.30;94414.94;5030464;28;20115;-69
2021/05/14 07:51:39;;;;;;;1.52;0.50;;;;;;;25.94;36.14;94389.81;5047299;28;20116;-72
2021/05/14 07:54:05;;;;;;;1.60;0.60;;;;;;;25.99;36.11;94416.31;5029474;28;20037;-72
2021/05/14 07:56:31;;;;;;;1.92;0.73;;;;;;;26.00;34.45;94417.75;5048137;28;20123;-72
2021/05/14 07:58:56;;;;;;;2.08;0.70;;;;;;;25.86;35.05;94405.47;5046871;28;20028;-72
2021/05/14 08:01:21;;;;;;;1.80;0.70;;;;;;;25.87;35.00;94406.94;5045176;28;20420;-72
2021/05/14 08:03:48;;;;;;;1.85;0.70;;;;;;;25.93;34.72;94420.47;5044219;28;20043;-72
2021/05/14 08:06:13;;;;;;;2.38;0.80;;;;;;;25.88;35.49;94424.81;5028380;28;20029;-72
2021/05/14 08:08:41;;;;;;;2.55;0.57;;;;;;;25.81;35.73;94403.63;5047176;28;20033;-72
2021/05/14 08:11:07;;;;;;;1.92;0.50;;;;;;;25.84;35.29;94424.44;5029304;28;20060;-71
2021/05/14 08:13:32;;;;;;;1.67;0.75;;;;;;;25.89;35.53;94420.81;5028228;28;20033;-70
2021/05/14 08:15:58;;;;;;;1.13;0.50;;;;;;;25.88;35.43;94413.16;5040327;28;20357;-70
2021/05/14 08:18:23;;;;;;;1.38;0.57;;;;;;;25.82;35.78;94410.56;5047484;28;20481;-72
2021/05/14 08:20:49;;;;;;;0.90;0.50;;;;;;;25.88;35.55;94419.34;5029444;28;20024;-71
2021/05/14 08:23:17;;;;;;;1.42;0.60;;;;;;;25.81;36.24;94406.38;5045421;28;20032;-71
2021/05/14 08:25:43;;;;;;;2.30;0.60;;;;;;;25.80;35.86;94407.63;5045797;28;20111;-71
2021/05/14 08:28:08;;;;;;;1.00;0.50;;;;;;;25.83;36.25;94412.03;5059956;28;20569;-71
2021/05/14 08:30:34;;;;;;;1.60;0.60;;;;;;;25.77;35.77;94401.78;5046835;28;20032;-71
2021/05/14 08:32:59;;;;;;;1.60;0.60;;;;;;;25.78;36.16;94420.38;5029560;28;20033;-71
2021/05/14 08:35:25;;;;;;;2.03;0.70;;;;;;;25.78;35.84;94411.44;5028941;28;20028;-71
2021/05/14 08:37:52;;;;;;;1.35;0.60;;;;;;;25.77;36.01;94416.19;5046982;28;20017;-74
2021/05/14 08:40:17;;;;;;;1.85;0.43;;;;;;;25.79;35.87;94404.72;5046266;28;20136;-73
2021/05/14 08:42:43;;;;;;;1.45;0.60;;;;;;;25.78;36.44;94408.72;5045943;28;20086;-71
2021/05/14 08:45:09;;;;;;;2.05;0.40;;;;;;;25.80;36.41;94412.38;5045948;28;20033;-72
2021/05/14 08:47:38;;;;;;;1.42;0.57;;;;;;;25.65;36.83;94400.59;5043991;28;20033;-71
2021/05/14 08:50:05;;;;;;;2.27;0.67;;;;;;;25.78;36.82;94408.72;5063170;28;20033;-71
2021/05/14 08:52:32;;;;;;;1.70;0.57;;;;;;;25.71;36.94;94399.22;5047330;28;20075;-70
2021/05/14 08:54:59;;;;;;;1.55;0.60;;;;;;;25.75;37.09;94404.31;5062710;28;20064;-71
2021/05/14 08:57:25;;;;;;;1.02;0.43;;;;;;;25.78;36.40;94411.44;5046936;28;20029;-71
2021/05/14 08:59:51;;;;;;;1.45;0.52;;;;;;;25.85;35.93;94425.88;5046415;28;20470;-71
2021/05/14 09:02:17;;;;;;;1.23;0.50;;;;;;;25.80;36.56;94415.84;5047757;28;20055;-71
2021/05/14 09:04:42;;;;;;;2.20;0.57;;;;;;;25.79;37.24;94425.31;5029365;28;20029;-71
2021/05/14 09:07:16;;;;;;;2.58;0.57;;;;;;;25.78;36.55;94419.66;5046521;28;20040;-71
2021/05/14 09:09:44;;;;;;;1.70;0.50;;;;;;;25.67;36.87;94398.09;5046360;28;20056;-71
2021/05/14 09:12:09;;;;;;;2.45;0.40;;;;;;;25.78;37.35;94414.19;5029009;28;20121;-71
2021/05/14 09:14:41;;;;;;;3.17;0.60;;;;;;;25.79;37.04;94417.09;5044798;28;20127;-67
2021/05/14 09:17:11;;;;;;;1.10;0.50;;;;;;;25.44;37.06;94381.53;5046826;28;20040;-69
2021/05/14 09:19:38;;;;;;;1.77;0.52;;;;;;;25.80;37.14;94424.06;5047594;28;20033;-69
2021/05/14 09:22:11;;;;;;;1.70;0.60;;;;;;;25.81;38.05;94431.00;5048284;28;20025;-68
2021/05/14 09:24:37;;;;;;;1.13;0.40;;;;;;;25.71;37.01;94403.94;5047211;28;20162;-69
2021/05/14 09:27:26;;;;;;;1.80;0.60;;;;;;;25.86;38.08;94416.41;5032785;28;20488;-69
2021/05/14 09:29:52;;;;;;;3.53;0.73;;;;;;;25.87;38.27;94426.09;5047983;28;20155;-69
2021/05/14 09:32:25;;;;;;;3.22;0.55;;;;;;;25.91;37.64;94426.47;5050918;28;20055;-69
2021/05/14 09:34:52;;;;;;;2.85;0.80;;;;;;;25.63;38.08;94360.09;5049650;28;20017;-69
2021/05/14 09:37:18;;;;;;;3.67;0.50;;;;;;;26.01;37.85;94427.44;5029073;28;20037;-68
2021/05/14 09:39:44;;;;;;;2.05;0.55;;;;;;;25.90;37.09;94411.34;5014942;28;20127;-68
2021/05/14 09:42:09;;;;;;;3.92;0.95;;;;;;;26.15;38.18;94436.97;5048625;28;20029;-69
2021/05/14 09:44:35;;;;;;;1.02;0.50;;;;;;;26.23;37.58;94415.84;5049177;28;20017;-69
2021/05/14 09:47:00;;;;;;;1.50;0.50;;;;;;;26.33;37.04;94425.03;5048167;28;20023;-68
2021/05/14 09:49:28;;;;;;;1.63;0.60;;;;;;;26.42;36.97;94419.03;5049747;28;20407;-69
2021/05/14 09:52:03;;;;;;;1.48;0.55;;;;;;;26.51;37.35;94419.25;5048730;28;20024;-69
2021/05/14 09:54:35;;;;;;;2.25;0.60;;;;;;;26.65;36.92;94411.59;5048522;28;20067;-66
2021/05/14 09:57:41;;;;;;;1.50;0.68;;;;;;;26.77;36.61;94419.69;5053016;28;20499;-67
2021/05/14 10:00:05;;;;;;;1.67;0.55;;;;;;;26.88;36.10;94424.78;5061168;28;20503;-67
2021/05/14 10:02:33;;;;;;;2.45;0.40;;;;;;;26.97;36.70;94448.22;5052074;28;20025;-67
2021/05/14 10:04:59;;;;;;;1.75;0.70;;;;;;;26.85;35.83;94420.41;5051336;28;20028;-70
2021/05/14 10:07:26;;;;;;;2.08;0.60;;;;;;;27.16;35.30;94476.75;5048259;28;20128;-69
2021/05/14 10:09:55;;;;;;;4.13;0.60;;;;;;;26.67;34.03;94458.38;5049777;28;20033;-69
2021/05/14 10:12:21;;;;;;;2.30;0.70;;;;;;;26.95;35.15;94483.66;5031657;28;20029;-68
2021/05/14 10:14:46;;;;;;;1.15;0.40;;;;;;;27.10;36.44;94473.47;5031704;28;20540;-68
2021/05/14 10:17:12;;;;;;;1.90;0.52;;;;;;;27.22;34.80;94480.06;5048228;28;20029;-68
2021/05/14 10:19:37;;;;;;;1.75;0.45;;;;;;;27.15;34.49;94442.41;5048081;28;20016;-68
2021/05/14 10:22:04;;;;;;;3.80;0.57;;;;;;;27.39;34.75;94477.50;5045321;28;20467;-71
2021/05/14 10:24:42;;;;;;;2.30;0.60;;;;;;;27.45;34.83;94458.84;5048233;28;20033;-71
2021/05/14 10:27:20;;;;;;;2.92;0.70;;;;;;;27.53;34.55;94462.34;5049698;28;20700;-71
2021/05/14 10:29:48;;;;;;;1.67;0.40;;;;;;;27.50;34.29;94433.28;5048191;28;20102;-71
2021/05/14 10:32:13;;;;;;;3.05;1.30;;;;;;;27.55;34.38;94429.59;5031720;28;20067;-71
2021/05/14 10:34:39;;;;;;;1.98;0.60;;;;;;;27.60;34.75;94420.47;5014317;28;20093;-71
2021/05/14 10:37:04;;;;;;;2.47;0.55;;;;;;;27.65;34.32;94422.28;5048200;28;20033;-71
2021/05/14 10:39:35;;;;;;;2.58;0.50;;;;;;;27.92;34.54;94440.50;5047609;28;20044;-71
2021/05/14 10:42:01;;;;;;;1.25;0.55;;;;;;;27.67;34.61;94398.50;5015578;28;20025;-71
2021/05/14 10:44:49;;;;;;;1.90;0.60;;;;;;;27.97;34.72;94437.56;5030404;28;20546;-70
2021/05/14 10:47:21;;;;;;;2.55;0.60;;;;;;;28.02;34.80;94433.88;5031789;28;20568;-72
2021/05/14 10:49:47;;;;;;;0.90;0.40;;;;;;;28.03;34.12;94435.38;5049010;28;20041;-71
2021/05/14 10:52:13;;;;;;;1.55;0.60;;;;;;;27.92;34.24;94410.31;5031195;28;20048;-71
2021/05/14 10:54:38;;;;;;;1.55;0.60;;;;;;;28.17;34.06;94428.38;5047637;28;20392;-71
2021/05/14 10:57:04;;;;;;;1.67;0.50;;;;;;;28.18;33.85;94423.63;5049122;28;20029;-71
2021/05/14 10:59:32;;;;;;;2.42;0.50;;;;;;;28.32;33.63;94425.56;5030933;28;20080;-71
2021/05/14 11:01:58;;;;;;;2.13;0.70;;;;;;;28.36;33.61;94428.69;5048697;28;20500;-70
2021/05/14 11:04:26;;;;;;;1.33;0.47;;;;;;;28.39;33.82;94435.81;5060504;28;20082;-71
2021/05/14 11:06:53;;;;;;;2.22;0.57;;;;;;;28.41;33.78;94446.97;5044290;28;20098;-71
2021/05/14 11:09:23;;;;;;;2.47;0.50;;;;;;;28.37;34.00;94463.09;5047975;28;20040;-71
2021/05/14 11:12:10;;;;;;;2.28;0.60;;;;;;;28.35;34.15;94449.19;5048908;28;20060;-72
2021/05/14 11:14:46;;;;;;;2.85;1.38;;;;;;;28.25;33.44;94429.06;5061037;28;20040;-71
2021/05/14 11:17:15;;;;;;;1.60;0.40;;;;;;;28.42;34.29;94437.44;5014281;28;20032;-71
2021/05/14 11:19:47;;;;;;;1.08;0.55;;;;;;;28.56;33.80;94430.41;5030440;28;20114;-71
2021/05/14 11:22:15;;;;;;;1.33;0.45;;;;;;;28.31;33.97;94418.59;5048387;28;20496;-71
2021/05/14 11:24:48;;;;;;;2.53;0.65;;;;;;;28.61;33.75;94429.47;5030175;28;20036;-70
2021/05/14 11:27:21;;;;;;;1.67;0.57;;;;;;;28.59;32.99;94424.53;5046428;28;20021;-71
2021/05/14 11:29:48;;;;;;;1.13;0.40;;;;;;;28.54;33.75;94422.72;5061327;28;20068;-71
2021/05/14 11:32:27;;;;;;;3.03;0.70;;;;;;;28.67;33.07;94430.75;5045164;28;20025;-71
2021/05/14 11:34:56;;;;;;;1.42;0.52;;;;;;;28.72;32.94;94420.84;5029164;28;20036;-71